sensor_id;sensor_type;location;lat;lon;timestamp;P1;durP1;ratioP1;P2;durP2;ratioP2
42846;SDS011;28495;49.916;14.536;2022-09-09T00:13:16;1.58;;;1.25;;
42846;SDS011;28495;49.916;14.536;2022-09-09T00:24:28;1.80;;;1.10;;
42846;SDS011;28495;49.916;14.536;2022-09-09T00:35:37;1.58;;;1.20;;
42846;SDS011;28495;49.916;14.536;2022-09-09T00:52:03;1.42;;;1.17;;
42846;SDS011;28495;49.916;14.536;2022-09-09T00:57:38;3.25;;;1.45;;
42846;SDS011;28495;49.916;14.536;2022-09-09T01:15:21;2.38;;;1.30;;
42846;SDS011;28495;49.916;14.536;2022-09-09T01:31:56;2.00;;;1.50;;
42846;SDS011;28495;49.916;14.536;2022-09-09T01:37:19;1.30;;;1.20;;
42846;SDS011;28495;49.916;14.536;2022-09-09T01:42:40;1.35;;;1.25;;
42846;SDS011;28495;49.916;14.536;2022-09-09T01:48:02;2.65;;;1.27;;
42846;SDS011;28495;49.916;14.536;2022-09-09T01:53:39;2.70;;;1.27;;
42846;SDS011;28495;49.916;14.536;2022-09-09T02:05:36;1.40;;;1.30;;
42846;SDS011;28495;49.916;14.536;2022-09-09T02:11:16;1.20;;;1.13;;
42846;SDS011;28495;49.916;14.536;2022-09-09T02:16:48;1.52;;;1.42;;
42846;SDS011;28495;49.916;14.536;2022-09-09T02:22:16;2.35;;;1.23;;
42846;SDS011;28495;49.916;14.536;2022-09-09T02:27:41;1.38;;;1.20;;
42846;SDS011;28495;49.916;14.536;2022-09-09T02:33:06;1.15;;;1.10;;
42846;SDS011;28495;49.916;14.536;2022-09-09T02:38:40;1.30;;;1.20;;
42846;SDS011;28495;49.916;14.536;2022-09-09T02:44:12;2.17;;;1.40;;
42846;SDS011;28495;49.916;14.536;2022-09-09T03:01:05;1.40;;;1.30;;
42846;SDS011;28495;49.916;14.536;2022-09-09T03:06:26;2.35;;;1.20;;
42846;SDS011;28495;49.916;14.536;2022-09-09T03:11:57;3.95;;;1.50;;
42846;SDS011;28495;49.916;14.536;2022-09-09T03:17:20;1.20;;;1.00;;
42846;SDS011;28495;49.916;14.536;2022-09-09T03:22:46;0.85;;;0.85;;
42846;SDS011;28495;49.916;14.536;2022-09-09T03:28:06;1.40;;;0.95;;
42846;SDS011;28495;49.916;14.536;2022-09-09T03:33:27;2.63;;;1.25;;
42846;SDS011;28495;49.916;14.536;2022-09-09T03:38:48;1.70;;;1.05;;
42846;SDS011;28495;49.916;14.536;2022-09-09T03:44:09;1.30;;;1.20;;
42846;SDS011;28495;49.916;14.536;2022-09-09T03:49:33;2.33;;;1.20;;
42846;SDS011;28495;49.916;14.536;2022-09-09T03:54:54;1.17;;;1.13;;
42846;SDS011;28495;49.916;14.536;2022-09-09T04:00:17;3.00;;;1.10;;
42846;SDS011;28495;49.916;14.536;2022-09-09T04:05:43;1.55;;;0.98;;
42846;SDS011;28495;49.916;14.536;2022-09-09T04:11:04;1.45;;;1.20;;
42846;SDS011;28495;49.916;14.536;2022-09-09T04:16:28;1.77;;;1.10;;
42846;SDS011;28495;49.916;14.536;2022-09-09T04:21:49;1.10;;;1.00;;
42846;SDS011;28495;49.916;14.536;2022-09-09T04:27:13;2.30;;;1.48;;
42846;SDS011;28495;49.916;14.536;2022-09-09T04:32:34;3.67;;;1.50;;
42846;SDS011;28495;49.916;14.536;2022-09-09T04:37:56;2.63;;;1.52;;
42846;SDS011;28495;49.916;14.536;2022-09-09T04:43:16;1.73;;;1.30;;
42846;SDS011;28495;49.916;14.536;2022-09-09T04:48:39;1.30;;;1.20;;
42846;SDS011;28495;49.916;14.536;2022-09-09T04:54:02;1.77;;;1.27;;
42846;SDS011;28495;49.916;14.536;2022-09-09T04:59:24;1.60;;;1.50;;
42846;SDS011;28495;49.916;14.536;2022-09-09T05:04:48;1.25;;;1.17;;
42846;SDS011;28495;49.916;14.536;2022-09-09T05:10:09;1.25;;;1.15;;
42846;SDS011;28495;49.916;14.536;2022-09-09T05:15:31;1.58;;;1.40;;
42846;SDS011;28495;49.916;14.536;2022-09-09T05:20:51;1.60;;;1.40;;
42846;SDS011;28495;49.916;14.536;2022-09-09T05:26:13;3.50;;;1.40;;
42846;SDS011;28495;49.916;14.536;2022-09-09T05:31:39;2.05;;;1.20;;
42846;SDS011;28495;49.916;14.536;2022-09-09T05:37:04;2.75;;;1.60;;
42846;SDS011;28495;49.916;14.536;2022-09-09T05:42:28;3.15;;;1.45;;
42846;SDS011;28495;49.916;14.536;2022-09-09T05:47:51;2.38;;;1.70;;
42846;SDS011;28495;49.916;14.536;2022-09-09T05:53:15;1.60;;;1.50;;
42846;SDS011;28495;49.916;14.536;2022-09-09T05:58:37;2.60;;;1.80;;
42846;SDS011;28495;49.916;14.536;2022-09-09T06:04:02;4.15;;;2.25;;
42846;SDS011;28495;49.916;14.536;2022-09-09T06:09:25;2.83;;;1.80;;
42846;SDS011;28495;49.916;14.536;2022-09-09T06:14:46;1.83;;;1.35;;
42846;SDS011;28495;49.916;14.536;2022-09-09T06:20:07;1.77;;;1.67;;
42846;SDS011;28495;49.916;14.536;2022-09-09T06:25:29;1.77;;;1.65;;
42846;SDS011;28495;49.916;14.536;2022-09-09T06:30:56;2.30;;;1.73;;
42846;SDS011;28495;49.916;14.536;2022-09-09T06:36:20;1.88;;;1.42;;
42846;SDS011;28495;49.916;14.536;2022-09-09T06:41:42;1.55;;;1.45;;
42846;SDS011;28495;49.916;14.536;2022-09-09T06:47:32;1.30;;;1.20;;
42846;SDS011;28495;49.916;14.536;2022-09-09T06:52:54;1.60;;;1.50;;
42846;SDS011;28495;49.916;14.536;2022-09-09T06:58:15;1.10;;;1.05;;
42846;SDS011;28495;49.916;14.536;2022-09-09T07:03:36;1.67;;;1.30;;
42846;SDS011;28495;49.916;14.536;2022-09-09T07:08:58;1.10;;;1.00;;
42846;SDS011;28495;49.916;14.536;2022-09-09T07:14:21;1.30;;;1.20;;
42846;SDS011;28495;49.916;14.536;2022-09-09T07:19:52;1.23;;;1.13;;
42846;SDS011;28495;49.916;14.536;2022-09-09T07:25:14;1.60;;;1.10;;
42846;SDS011;28495;49.916;14.536;2022-09-09T07:30:37;3.30;;;1.00;;
42846;SDS011;28495;49.916;14.536;2022-09-09T07:36:06;3.03;;;1.27;;
42846;SDS011;28495;49.916;14.536;2022-09-09T07:41:31;0.85;;;0.85;;
42846;SDS011;28495;49.916;14.536;2022-09-09T07:46:57;3.70;;;0.90;;
42846;SDS011;28495;49.916;14.536;2022-09-09T07:52:25;1.00;;;0.90;;
42846;SDS011;28495;49.916;14.536;2022-09-09T07:57:49;2.03;;;0.90;;
42846;SDS011;28495;49.916;14.536;2022-09-09T08:03:10;1.70;;;0.90;;
42846;SDS011;28495;49.916;14.536;2022-09-09T08:08:31;2.05;;;0.90;;
42846;SDS011;28495;49.916;14.536;2022-09-09T08:13:53;1.15;;;0.60;;
42846;SDS011;28495;49.916;14.536;2022-09-09T08:19:20;0.80;;;0.80;;
42846;SDS011;28495;49.916;14.536;2022-09-09T08:24:41;3.33;;;1.00;;
42846;SDS011;28495;49.916;14.536;2022-09-09T08:30:02;0.88;;;0.80;;
42846;SDS011;28495;49.916;14.536;2022-09-09T08:35:23;0.80;;;0.80;;
42846;SDS011;28495;49.916;14.536;2022-09-09T08:40:45;0.90;;;0.90;;
42846;SDS011;28495;49.916;14.536;2022-09-09T08:46:16;1.10;;;1.00;;
42846;SDS011;28495;49.916;14.536;2022-09-09T08:51:54;3.22;;;1.00;;
42846;SDS011;28495;49.916;14.536;2022-09-09T08:57:21;1.38;;;0.88;;
42846;SDS011;28495;49.916;14.536;2022-09-09T09:03:05;5.35;;;1.23;;
42846;SDS011;28495;49.916;14.536;2022-09-09T09:09:21;1.27;;;1.00;;
42846;SDS011;28495;49.916;14.536;2022-09-09T09:14:24;0.80;;;0.80;;
42846;SDS011;28495;49.916;14.536;2022-09-09T09:19:52;1.73;;;0.98;;
42846;SDS011;28495;49.916;14.536;2022-09-09T09:25:24;2.35;;;0.70;;
42846;SDS011;28495;49.916;14.536;2022-09-09T09:31:09;1.10;;;0.98;;
42846;SDS011;28495;49.916;14.536;2022-09-09T09:36:37;6.30;;;1.20;;
42846;SDS011;28495;49.916;14.536;2022-09-09T09:42:11;2.47;;;1.17;;
42846;SDS011;28495;49.916;14.536;2022-09-09T09:47:38;3.22;;;1.33;;
42846;SDS011;28495;49.916;14.536;2022-09-09T09:53:05;1.85;;;0.80;;
42846;SDS011;28495;49.916;14.536;2022-09-09T09:58:48;0.63;;;0.60;;
42846;SDS011;28495;49.916;14.536;2022-09-09T10:04:19;1.13;;;0.90;;
42846;SDS011;28495;49.916;14.536;2022-09-09T10:09:48;1.42;;;0.90;;
42846;SDS011;28495;49.916;14.536;2022-09-09T10:15:22;1.23;;;0.90;;
42846;SDS011;28495;49.916;14.536;2022-09-09T10:21:06;0.90;;;0.90;;
42846;SDS011;28495;49.916;14.536;2022-09-09T10:38:16;0.60;;;0.60;;
42846;SDS011;28495;49.916;14.536;2022-09-09T11:00:19;0.73;;;0.43;;
42846;SDS011;28495;49.916;14.536;2022-09-09T11:05:43;0.93;;;0.63;;
42846;SDS011;28495;49.916;14.536;2022-09-09T11:16:57;1.23;;;0.60;;
42846;SDS011;28495;49.916;14.536;2022-09-09T11:22:34;1.63;;;0.43;;
42846;SDS011;28495;49.916;14.536;2022-09-09T11:39:38;1.95;;;0.55;;
42846;SDS011;28495;49.916;14.536;2022-09-09T11:51:42;1.80;;;0.50;;
42846;SDS011;28495;49.916;14.536;2022-09-09T11:56:43;1.52;;;0.68;;
42846;SDS011;28495;49.916;14.536;2022-09-09T12:02:18;0.88;;;0.60;;
42846;SDS011;28495;49.916;14.536;2022-09-09T12:07:55;1.92;;;0.52;;
42846;SDS011;28495;49.916;14.536;2022-09-09T12:13:19;1.58;;;0.40;;
42846;SDS011;28495;49.916;14.536;2022-09-09T12:18:43;0.57;;;0.30;;
42846;SDS011;28495;49.916;14.536;2022-09-09T12:29:40;2.28;;;0.40;;
42846;SDS011;28495;49.916;14.536;2022-09-09T12:35:17;0.85;;;0.40;;
42846;SDS011;28495;49.916;14.536;2022-09-09T12:40:41;1.10;;;0.35;;
42846;SDS011;28495;49.916;14.536;2022-09-09T12:46:07;2.05;;;0.60;;
42846;SDS011;28495;49.916;14.536;2022-09-09T12:51:35;2.28;;;0.60;;
42846;SDS011;28495;49.916;14.536;2022-09-09T12:56:56;1.55;;;0.60;;
42846;SDS011;28495;49.916;14.536;2022-09-09T13:02:19;2.03;;;0.50;;
42846;SDS011;28495;49.916;14.536;2022-09-09T13:07:46;3.05;;;0.70;;
42846;SDS011;28495;49.916;14.536;2022-09-09T13:13:14;2.10;;;0.70;;
42846;SDS011;28495;49.916;14.536;2022-09-09T13:18:39;0.55;;;0.55;;
42846;SDS011;28495;49.916;14.536;2022-09-09T13:24:03;1.77;;;0.70;;
42846;SDS011;28495;49.916;14.536;2022-09-09T13:29:50;1.25;;;0.60;;
42846;SDS011;28495;49.916;14.536;2022-09-09T13:35:22;1.30;;;0.52;;
42846;SDS011;28495;49.916;14.536;2022-09-09T13:40:54;0.45;;;0.40;;
42846;SDS011;28495;49.916;14.536;2022-09-09T13:51:50;1.65;;;0.73;;
42846;SDS011;28495;49.916;14.536;2022-09-09T13:57:14;2.42;;;0.80;;
42846;SDS011;28495;49.916;14.536;2022-09-09T14:02:45;8.00;;;1.00;;
42846;SDS011;28495;49.916;14.536;2022-09-09T14:08:06;6.25;;;0.70;;
42846;SDS011;28495;49.916;14.536;2022-09-09T14:13:28;4.10;;;0.70;;
42846;SDS011;28495;49.916;14.536;2022-09-09T14:18:48;3.17;;;0.52;;
42846;SDS011;28495;49.916;14.536;2022-09-09T14:24:09;1.60;;;0.85;;
42846;SDS011;28495;49.916;14.536;2022-09-09T14:29:30;1.63;;;0.80;;
42846;SDS011;28495;49.916;14.536;2022-09-09T14:34:52;3.00;;;0.70;;
42846;SDS011;28495;49.916;14.536;2022-09-09T14:40:13;2.58;;;0.88;;
42846;SDS011;28495;49.916;14.536;2022-09-09T14:45:35;0.73;;;0.70;;
42846;SDS011;28495;49.916;14.536;2022-09-09T14:50:57;0.70;;;0.70;;
42846;SDS011;28495;49.916;14.536;2022-09-09T14:56:26;1.33;;;0.70;;
42846;SDS011;28495;49.916;14.536;2022-09-09T15:01:49;2.00;;;1.25;;
42846;SDS011;28495;49.916;14.536;2022-09-09T15:07:10;1.10;;;0.60;;
42846;SDS011;28495;49.916;14.536;2022-09-09T15:12:31;1.50;;;0.80;;
42846;SDS011;28495;49.916;14.536;2022-09-09T15:17:53;1.15;;;0.70;;
42846;SDS011;28495;49.916;14.536;2022-09-09T15:23:14;1.17;;;0.80;;
42846;SDS011;28495;49.916;14.536;2022-09-09T15:28:35;2.05;;;0.85;;
42846;SDS011;28495;49.916;14.536;2022-09-09T15:34:02;3.78;;;1.00;;
42846;SDS011;28495;49.916;14.536;2022-09-09T15:39:25;1.55;;;1.17;;
42846;SDS011;28495;49.916;14.536;2022-09-09T15:44:46;6.35;;;0.95;;
42846;SDS011;28495;49.916;14.536;2022-09-09T15:50:07;5.03;;;1.02;;
42846;SDS011;28495;49.916;14.536;2022-09-09T15:55:28;0.95;;;0.88;;
42846;SDS011;28495;49.916;14.536;2022-09-09T16:00:49;1.48;;;0.88;;
42846;SDS011;28495;49.916;14.536;2022-09-09T16:06:09;2.97;;;0.85;;
42846;SDS011;28495;49.916;14.536;2022-09-09T16:11:31;1.15;;;0.70;;
42846;SDS011;28495;49.916;14.536;2022-09-09T16:16:53;1.48;;;0.80;;
42846;SDS011;28495;49.916;14.536;2022-09-09T16:22:14;2.70;;;0.80;;
42846;SDS011;28495;49.916;14.536;2022-09-09T16:27:36;1.50;;;0.75;;
42846;SDS011;28495;49.916;14.536;2022-09-09T16:32:57;4.47;;;0.85;;
42846;SDS011;28495;49.916;14.536;2022-09-09T16:38:18;0.70;;;0.70;;
42846;SDS011;28495;49.916;14.536;2022-09-09T16:43:39;3.30;;;0.80;;
42846;SDS011;28495;49.916;14.536;2022-09-09T16:49:01;1.05;;;0.52;;
42846;SDS011;28495;49.916;14.536;2022-09-09T16:54:24;1.63;;;0.47;;
42846;SDS011;28495;49.916;14.536;2022-09-09T16:59:47;1.05;;;0.75;;
42846;SDS011;28495;49.916;14.536;2022-09-09T17:05:08;1.83;;;0.80;;
42846;SDS011;28495;49.916;14.536;2022-09-09T17:10:29;0.85;;;0.60;;
42846;SDS011;28495;49.916;14.536;2022-09-09T17:15:50;2.17;;;0.80;;
42846;SDS011;28495;49.916;14.536;2022-09-09T17:21:15;4.45;;;1.27;;
42846;SDS011;28495;49.916;14.536;2022-09-09T17:26:37;4.47;;;1.10;;
42846;SDS011;28495;49.916;14.536;2022-09-09T17:31:58;2.30;;;1.55;;
42846;SDS011;28495;49.916;14.536;2022-09-09T17:37:19;4.00;;;1.02;;
42846;SDS011;28495;49.916;14.536;2022-09-09T17:42:40;0.90;;;0.70;;
42846;SDS011;28495;49.916;14.536;2022-09-09T17:48:01;5.65;;;1.02;;
42846;SDS011;28495;49.916;14.536;2022-09-09T17:53:24;4.55;;;0.95;;
42846;SDS011;28495;49.916;14.536;2022-09-09T17:58:46;2.88;;;1.02;;
42846;SDS011;28495;49.916;14.536;2022-09-09T18:04:10;1.30;;;0.88;;
42846;SDS011;28495;49.916;14.536;2022-09-09T18:09:35;2.05;;;1.00;;
42846;SDS011;28495;49.916;14.536;2022-09-09T18:14:58;1.92;;;1.00;;
42846;SDS011;28495;49.916;14.536;2022-09-09T18:20:23;1.98;;;1.10;;
42846;SDS011;28495;49.916;14.536;2022-09-09T18:25:44;0.95;;;0.80;;
42846;SDS011;28495;49.916;14.536;2022-09-09T18:31:06;3.22;;;0.70;;
42846;SDS011;28495;49.916;14.536;2022-09-09T18:36:29;2.17;;;0.60;;
42846;SDS011;28495;49.916;14.536;2022-09-09T18:42:02;0.60;;;0.60;;
42846;SDS011;28495;49.916;14.536;2022-09-09T18:47:24;2.35;;;0.80;;
42846;SDS011;28495;49.916;14.536;2022-09-09T18:52:45;1.85;;;0.90;;
42846;SDS011;28495;49.916;14.536;2022-09-09T18:58:06;1.23;;;0.73;;
42846;SDS011;28495;49.916;14.536;2022-09-09T19:03:27;0.50;;;0.50;;
42846;SDS011;28495;49.916;14.536;2022-09-09T19:08:50;0.70;;;0.50;;
42846;SDS011;28495;49.916;14.536;2022-09-09T19:14:16;2.15;;;0.80;;
42846;SDS011;28495;49.916;14.536;2022-09-09T19:19:38;0.95;;;0.63;;
42846;SDS011;28495;49.916;14.536;2022-09-09T19:25:01;0.50;;;0.50;;
42846;SDS011;28495;49.916;14.536;2022-09-09T19:30:23;1.50;;;0.50;;
42846;SDS011;28495;49.916;14.536;2022-09-09T19:35:45;2.50;;;0.80;;
42846;SDS011;28495;49.916;14.536;2022-09-09T19:41:17;1.33;;;0.70;;
42846;SDS011;28495;49.916;14.536;2022-09-09T19:46:40;1.33;;;0.75;;
42846;SDS011;28495;49.916;14.536;2022-09-09T19:52:02;3.10;;;0.80;;
42846;SDS011;28495;49.916;14.536;2022-09-09T19:57:24;1.35;;;0.85;;
42846;SDS011;28495;49.916;14.536;2022-09-09T20:02:47;3.47;;;1.10;;
42846;SDS011;28495;49.916;14.536;2022-09-09T20:08:30;1.20;;;0.90;;
42846;SDS011;28495;49.916;14.536;2022-09-09T20:13:51;1.85;;;0.77;;
42846;SDS011;28495;49.916;14.536;2022-09-09T20:19:13;1.27;;;0.90;;
42846;SDS011;28495;49.916;14.536;2022-09-09T20:24:37;1.85;;;1.02;;
42846;SDS011;28495;49.916;14.536;2022-09-09T20:29:58;1.42;;;0.80;;
42846;SDS011;28495;49.916;14.536;2022-09-09T20:35:19;1.55;;;1.10;;
42846;SDS011;28495;49.916;14.536;2022-09-09T20:40:40;3.80;;;1.20;;
42846;SDS011;28495;49.916;14.536;2022-09-09T20:46:03;1.23;;;0.73;;
42846;SDS011;28495;49.916;14.536;2022-09-09T20:51:24;1.23;;;0.90;;
42846;SDS011;28495;49.916;14.536;2022-09-09T20:56:47;0.80;;;0.70;;
42846;SDS011;28495;49.916;14.536;2022-09-09T21:02:09;1.90;;;0.77;;
42846;SDS011;28495;49.916;14.536;2022-09-09T21:07:30;1.27;;;0.90;;
42846;SDS011;28495;49.916;14.536;2022-09-09T21:12:51;1.75;;;0.90;;
42846;SDS011;28495;49.916;14.536;2022-09-09T21:18:13;4.38;;;1.08;;
42846;SDS011;28495;49.916;14.536;2022-09-09T21:23:34;0.80;;;0.70;;
42846;SDS011;28495;49.916;14.536;2022-09-09T21:28:55;2.40;;;1.00;;
42846;SDS011;28495;49.916;14.536;2022-09-09T21:34:16;4.18;;;0.95;;
42846;SDS011;28495;49.916;14.536;2022-09-09T21:39:37;2.05;;;0.50;;
42846;SDS011;28495;49.916;14.536;2022-09-09T21:44:58;2.53;;;0.70;;
42846;SDS011;28495;49.916;14.536;2022-09-09T21:50:19;0.65;;;0.63;;
42846;SDS011;28495;49.916;14.536;2022-09-09T21:55:47;0.43;;;0.40;;
42846;SDS011;28495;49.916;14.536;2022-09-09T22:01:09;3.40;;;0.50;;
42846;SDS011;28495;49.916;14.536;2022-09-09T22:06:32;0.77;;;0.73;;
42846;SDS011;28495;49.916;14.536;2022-09-09T22:11:54;1.15;;;0.52;;
42846;SDS011;28495;49.916;14.536;2022-09-09T22:17:15;1.95;;;0.60;;
42846;SDS011;28495;49.916;14.536;2022-09-09T22:22:35;2.50;;;0.50;;
42846;SDS011;28495;49.916;14.536;2022-09-09T22:27:56;0.75;;;0.43;;
42846;SDS011;28495;49.916;14.536;2022-09-09T22:33:17;0.52;;;0.38;;
42846;SDS011;28495;49.916;14.536;2022-09-09T22:38:40;1.45;;;0.45;;
42846;SDS011;28495;49.916;14.536;2022-09-09T22:44:02;2.10;;;0.57;;
42846;SDS011;28495;49.916;14.536;2022-09-09T22:49:23;0.80;;;0.45;;
42846;SDS011;28495;49.916;14.536;2022-09-09T22:54:43;0.40;;;0.40;;
42846;SDS011;28495;49.916;14.536;2022-09-09T23:00:05;0.57;;;0.40;;
42846;SDS011;28495;49.916;14.536;2022-09-09T23:05:28;1.05;;;0.40;;
42846;SDS011;28495;49.916;14.536;2022-09-09T23:10:49;1.40;;;0.63;;
42846;SDS011;28495;49.916;14.536;2022-09-09T23:16:23;2.05;;;0.57;;
42846;SDS011;28495;49.916;14.536;2022-09-09T23:21:45;1.27;;;0.60;;
42846;SDS011;28495;49.916;14.536;2022-09-09T23:27:07;1.00;;;0.40;;
42846;SDS011;28495;49.916;14.536;2022-09-09T23:32:28;1.17;;;0.52;;
42846;SDS011;28495;49.916;14.536;2022-09-09T23:37:48;0.45;;;0.45;;
42846;SDS011;28495;49.916;14.536;2022-09-09T23:43:09;1.83;;;0.40;;
42846;SDS011;28495;49.916;14.536;2022-09-09T23:48:31;6.53;;;0.85;;
42846;SDS011;28495;49.916;14.536;2022-09-09T23:53:52;1.17;;;0.50;;
42846;SDS011;28495;49.916;14.536;2022-09-09T23:59:16;1.40;;;0.50;;
